createdAt,value
2019-06-20T00:00:49.210Z,15.90
2019-06-20T00:03:17.855Z,15.80
2019-06-20T00:05:46.453Z,15.70
2019-06-20T00:08:15.026Z,15.60
2019-06-20T00:10:43.676Z,15.70
2019-06-20T00:13:12.489Z,15.70
2019-06-20T00:15:41.021Z,15.70
2019-06-20T00:18:09.932Z,15.60
2019-06-20T00:20:38.519Z,15.70
2019-06-20T00:23:07.231Z,15.70
2019-06-20T00:25:35.697Z,15.70
2019-06-20T00:28:04.299Z,15.60
2019-06-20T00:30:32.874Z,15.70
2019-06-20T00:33:01.334Z,15.60
2019-06-20T00:35:29.825Z,15.60
2019-06-20T00:37:58.278Z,15.50
2019-06-20T00:40:26.721Z,15.50
2019-06-20T00:42:55.213Z,15.60
2019-06-20T00:45:24.080Z,15.50
2019-06-20T00:47:52.663Z,15.40
2019-06-20T00:50:21.113Z,15.50
2019-06-20T00:52:49.577Z,15.40
2019-06-20T00:55:18.139Z,15.40
2019-06-20T00:57:46.665Z,15.40
2019-06-20T01:00:17.050Z,15.40
2019-06-20T01:02:45.509Z,15.50
2019-06-20T01:05:14.375Z,15.50
2019-06-20T01:07:42.849Z,15.70
2019-06-20T01:10:11.822Z,15.90
2019-06-20T01:12:40.690Z,15.90
2019-06-20T01:15:09.920Z,15.90
2019-06-20T01:17:38.405Z,16.00
2019-06-20T01:20:08.581Z,16.00
2019-06-20T01:22:37.185Z,16.00
2019-06-20T01:25:10.074Z,16.00
2019-06-20T01:27:38.938Z,16.00
2019-06-20T01:30:09.846Z,16.00
2019-06-20T01:32:38.476Z,16.00
2019-06-20T01:35:08.799Z,16.00
2019-06-20T01:37:37.489Z,16.00
2019-06-20T01:40:06.749Z,16.00
2019-06-20T01:42:35.285Z,15.90
2019-06-20T01:45:07.862Z,15.90
2019-06-20T01:47:36.567Z,16.00
2019-06-20T01:50:06.859Z,16.00
2019-06-20T01:52:35.332Z,16.10
2019-06-20T01:55:05.115Z,16.10
2019-06-20T01:57:33.583Z,16.00
2019-06-20T02:00:02.257Z,15.90
2019-06-20T02:02:30.789Z,15.90
2019-06-20T02:04:59.292Z,15.80
2019-06-20T02:07:28.362Z,15.80
2019-06-20T02:09:57.053Z,15.70
2019-06-20T02:12:25.597Z,15.70
2019-06-20T02:14:54.044Z,15.60
2019-06-20T02:17:22.483Z,15.70
2019-06-20T02:19:50.943Z,15.90
2019-06-20T02:22:19.458Z,16.00
2019-06-20T02:24:48.060Z,16.00
2019-06-20T02:27:16.760Z,16.00
2019-06-20T02:29:45.235Z,16.10
2019-06-20T02:32:13.744Z,16.10
2019-06-20T02:34:42.217Z,16.00
2019-06-20T02:37:10.656Z,16.00
2019-06-20T02:39:39.124Z,16.10
2019-06-20T02:42:07.848Z,16.00
2019-06-20T02:44:36.742Z,16.80
2019-06-20T02:47:05.402Z,16.10
2019-06-20T02:49:33.969Z,16.10
2019-06-20T02:52:03.316Z,16.10
2019-06-20T02:54:32.034Z,16.00
2019-06-20T02:57:00.556Z,16.00
2019-06-20T02:59:29.174Z,16.10
2019-06-20T03:01:57.681Z,16.10
2019-06-20T03:04:26.163Z,16.00
2019-06-20T03:06:54.620Z,16.00
2019-06-20T03:09:23.056Z,16.00
2019-06-20T03:11:51.520Z,16.00
2019-06-20T03:14:19.977Z,16.00
2019-06-20T03:16:48.707Z,16.00
2019-06-20T03:19:17.210Z,16.00
2019-06-20T03:21:45.673Z,16.00
2019-06-20T03:24:14.104Z,16.00
2019-06-20T03:26:42.564Z,15.80
2019-06-20T03:29:11.026Z,15.80
2019-06-20T03:31:39.512Z,15.80
2019-06-20T03:34:08.085Z,15.80
2019-06-20T03:36:36.624Z,15.80
2019-06-20T03:39:06.859Z,15.80
2019-06-20T03:41:35.324Z,15.80
2019-06-20T03:44:04.008Z,15.80
2019-06-20T03:46:32.471Z,15.70
2019-06-20T03:49:00.967Z,15.60
2019-06-20T03:51:29.532Z,15.60
2019-06-20T03:53:57.972Z,15.70
2019-06-20T03:56:26.442Z,15.60
2019-06-20T03:58:54.897Z,15.60
2019-06-20T04:01:23.439Z,15.60
2019-06-20T04:03:51.884Z,15.70
2019-06-20T04:06:20.340Z,15.60
2019-06-20T04:08:48.792Z,15.70
2019-06-20T04:11:17.266Z,15.70
2019-06-20T04:13:45.777Z,15.60
2019-06-20T04:16:14.238Z,15.70
2019-06-20T04:18:42.693Z,15.70
2019-06-20T04:21:11.152Z,15.70
2019-06-20T04:23:40.137Z,15.80
2019-06-20T04:26:08.604Z,15.80
2019-06-20T04:28:37.048Z,15.80
2019-06-20T04:31:05.523Z,15.80
2019-06-20T04:33:34.039Z,15.80
2019-06-20T04:36:02.609Z,15.80
2019-06-20T04:38:31.086Z,15.80
2019-06-20T04:40:59.535Z,15.70
2019-06-20T04:43:27.987Z,15.70
2019-06-20T04:46:07.248Z,15.70
2019-06-20T04:48:36.280Z,15.70
2019-06-20T04:51:04.926Z,15.70
2019-06-20T04:53:33.364Z,15.70
2019-06-20T04:56:05.400Z,15.70
2019-06-20T04:58:32.073Z,15.80
2019-06-20T05:01:00.543Z,15.80
2019-06-20T05:03:28.981Z,15.90
2019-06-20T05:05:57.464Z,15.90
2019-06-20T05:08:25.905Z,15.90
2019-06-20T05:10:54.358Z,15.90
2019-06-20T05:13:22.894Z,15.80
2019-06-20T05:15:53.246Z,15.80
2019-06-20T05:18:21.607Z,15.80
2019-06-20T05:20:50.188Z,15.80
2019-06-20T05:23:18.715Z,15.80
2019-06-20T05:25:47.249Z,15.90
2019-06-20T05:28:15.729Z,15.90
2019-06-20T05:30:44.175Z,15.90
2019-06-20T05:33:12.956Z,15.90
2019-06-20T05:35:42.324Z,16.00
2019-06-20T05:38:10.788Z,16.00
2019-06-20T05:40:39.241Z,16.00
2019-06-20T05:43:07.825Z,16.10
2019-06-20T05:45:36.278Z,15.90
2019-06-20T05:48:05.373Z,16.00
2019-06-20T05:50:34.011Z,16.10
2019-06-20T05:53:02.550Z,16.10
2019-06-20T05:55:31.070Z,16.30
2019-06-20T05:57:59.607Z,16.30
2019-06-20T06:00:28.402Z,16.30
2019-06-20T06:02:58.303Z,16.30
2019-06-20T06:05:26.932Z,16.30
2019-06-20T06:07:55.465Z,16.30
2019-06-20T06:10:24.148Z,16.60
2019-06-20T06:12:52.625Z,16.50
2019-06-20T06:15:21.308Z,16.60
2019-06-20T06:17:49.757Z,16.80
2019-06-20T06:20:18.719Z,16.80
2019-06-20T06:22:47.232Z,16.80
2019-06-20T06:25:15.864Z,16.80
2019-06-20T06:27:44.313Z,16.80
2019-06-20T06:30:13.312Z,16.90
2019-06-20T06:32:41.985Z,16.80
2019-06-20T06:35:10.796Z,17.00
2019-06-20T06:37:39.985Z,17.00
2019-06-20T06:40:13.162Z,17.00
2019-06-20T06:42:41.679Z,16.90
2019-06-20T06:45:11.376Z,17.30
2019-06-20T06:47:39.957Z,17.00
2019-06-20T06:50:10.453Z,17.20
2019-06-20T06:52:38.913Z,17.20
2019-06-20T06:55:08.308Z,17.50
2019-06-20T06:57:36.820Z,17.50
2019-06-20T07:00:10.707Z,17.80
2019-06-20T07:02:39.194Z,17.80
2019-06-20T07:05:07.928Z,17.90
2019-06-20T07:07:36.433Z,17.80
2019-06-20T07:10:09.642Z,17.90
2019-06-20T07:12:38.167Z,18.00
2019-06-20T07:15:08.977Z,18.40
2019-06-20T07:17:37.606Z,18.00
2019-06-20T07:20:09.335Z,18.70
2019-06-20T07:22:38.004Z,18.40
2019-06-20T07:25:08.504Z,18.60
2019-06-20T07:27:37.209Z,18.30
2019-06-20T07:30:10.479Z,18.50
2019-06-20T07:32:38.943Z,18.20
2019-06-20T07:35:09.240Z,17.70
2019-06-20T07:37:37.767Z,17.70
2019-06-20T07:40:08.047Z,17.60
2019-06-20T07:42:36.750Z,17.90
2019-06-20T07:45:10.068Z,18.50
2019-06-20T07:47:39.091Z,19.40
2019-06-20T07:50:09.756Z,19.00
2019-06-20T07:52:38.416Z,18.80
2019-06-20T07:55:08.789Z,19.20
2019-06-20T07:57:37.323Z,19.90
2019-06-20T08:00:08.072Z,20.10
2019-06-20T08:02:37.093Z,20.60
2019-06-20T08:05:09.084Z,20.90
2019-06-20T08:07:37.815Z,21.50
2019-06-20T08:10:14.219Z,20.40
2019-06-20T08:12:43.010Z,19.90
2019-06-20T08:15:15.439Z,19.90
2019-06-20T08:17:43.907Z,19.90
2019-06-20T08:20:13.153Z,20.60
2019-06-20T08:22:41.634Z,20.60
2019-06-20T08:25:11.033Z,20.20
2019-06-20T08:27:52.244Z,20.60
2019-06-20T08:30:23.576Z,20.00
2019-06-20T08:32:52.498Z,20.30
2019-06-20T08:35:23.452Z,20.60
2019-06-20T08:37:53.532Z,21.30
2019-06-20T08:40:23.654Z,20.80
2019-06-20T08:42:52.400Z,21.50
2019-06-20T08:45:22.990Z,21.60
2019-06-20T08:47:51.459Z,20.70
2019-06-20T08:50:20.364Z,20.50
2019-06-20T08:52:49.056Z,20.60
2019-06-20T08:55:18.609Z,20.20
2019-06-20T08:57:47.353Z,20.70
2019-06-20T09:00:17.406Z,21.30
2019-06-20T09:02:45.947Z,21.80
2019-06-20T09:05:15.053Z,21.50
2019-06-20T09:07:43.574Z,21.90
2019-06-20T09:10:13.589Z,20.80
2019-06-20T09:12:42.160Z,21.30
2019-06-20T09:15:10.797Z,20.50
2019-06-20T09:17:40.247Z,20.30
2019-06-20T09:20:10.658Z,20.50
2019-06-20T09:22:39.236Z,20.40
2019-06-20T09:25:09.472Z,19.90
2019-06-20T09:27:38.356Z,19.50
2019-06-20T09:30:09.049Z,19.20
2019-06-20T09:32:37.873Z,19.30
2019-06-20T09:35:08.349Z,19.60
2019-06-20T09:37:37.251Z,20.10
2019-06-20T09:40:08.845Z,20.30
2019-06-20T09:42:38.053Z,20.80
2019-06-20T09:45:12.130Z,20.90
2019-06-20T09:47:40.721Z,20.90
2019-06-20T09:50:11.160Z,21.10
2019-06-20T09:52:40.277Z,21.20
2019-06-20T09:55:09.476Z,20.50
2019-06-20T09:57:37.935Z,20.10
2019-06-20T10:00:10.787Z,20.10
2019-06-20T10:02:40.392Z,20.10
2019-06-20T10:05:09.372Z,20.00
2019-06-20T10:07:38.043Z,19.90
2019-06-20T10:10:12.014Z,20.00
2019-06-20T10:12:40.790Z,20.60
2019-06-20T10:15:24.292Z,20.70
2019-06-20T10:17:52.936Z,20.70
2019-06-20T10:20:23.041Z,20.80
2019-06-20T10:22:53.060Z,20.90
2019-06-20T10:25:22.595Z,21.60
2019-06-20T10:27:53.265Z,22.30
2019-06-20T10:30:25.115Z,22.30
2019-06-20T10:32:53.804Z,21.70
2019-06-20T10:35:22.692Z,21.20
2019-06-20T10:37:52.769Z,21.40
2019-06-20T10:40:21.636Z,21.30
2019-06-20T10:42:50.316Z,21.70
2019-06-20T10:45:21.297Z,21.50
2019-06-20T10:47:50.968Z,21.60
2019-06-20T10:50:20.375Z,21.60
2019-06-20T10:52:50.097Z,22.00
2019-06-20T10:55:20.437Z,22.30
2019-06-20T10:57:49.829Z,21.60
2019-06-20T11:00:30.225Z,21.00
2019-06-20T11:02:49.554Z,20.90
2019-06-20T11:05:18.072Z,21.40
2019-06-20T11:07:47.603Z,21.00
2019-06-20T11:10:16.974Z,20.50
2019-06-20T11:12:50.211Z,20.70
2019-06-20T11:15:16.708Z,21.00
2019-06-20T11:17:46.265Z,20.60
2019-06-20T11:20:15.679Z,20.60
2019-06-20T11:22:45.387Z,21.80
2019-06-20T11:25:18.976Z,21.60
2019-06-20T11:27:47.306Z,21.60
2019-06-20T11:30:24.985Z,21.40
2019-06-20T11:32:53.560Z,22.70
2019-06-20T11:35:22.021Z,23.20
2019-06-20T11:37:50.605Z,24.20
2019-06-20T11:40:19.884Z,25.00
2019-06-20T11:42:48.403Z,23.40
2019-06-20T11:45:17.575Z,22.40
2019-06-20T11:47:47.346Z,22.60
2019-06-20T11:50:17.950Z,23.80
2019-06-20T11:52:46.555Z,23.80
2019-06-20T11:55:15.529Z,25.00
2019-06-20T11:57:44.154Z,23.30
2019-06-20T12:00:14.705Z,23.10
2019-06-20T12:02:44.260Z,22.50
2019-06-20T12:05:13.789Z,22.30
2019-06-20T12:07:43.849Z,21.50
2019-06-20T12:10:15.861Z,21.50
2019-06-20T12:12:44.952Z,21.50
2019-06-20T12:15:13.893Z,21.10
2019-06-20T12:17:43.455Z,21.20
2019-06-20T12:20:14.958Z,22.40
2019-06-20T12:22:44.922Z,22.30
2019-06-20T12:25:15.094Z,21.60
2019-06-20T12:27:45.257Z,20.60
2019-06-20T12:30:15.815Z,20.90
2019-06-20T12:32:44.762Z,21.20
2019-06-20T12:35:14.070Z,21.60
2019-06-20T12:37:45.211Z,22.10
2019-06-20T12:40:13.491Z,22.20
2019-06-20T12:42:43.197Z,21.10
2019-06-20T12:45:14.982Z,21.20
2019-06-20T12:47:43.867Z,21.30
2019-06-20T12:50:14.197Z,21.20
2019-06-20T12:52:42.956Z,21.30
2019-06-20T12:55:12.472Z,21.20
2019-06-20T12:57:42.314Z,21.20
2019-06-20T13:00:13.466Z,22.20
2019-06-20T13:02:45.491Z,24.10
2019-06-20T13:05:16.732Z,24.30
2019-06-20T13:07:46.476Z,22.30
2019-06-20T13:10:16.141Z,22.10
2019-06-20T13:12:45.973Z,21.40
2019-06-20T13:15:16.261Z,22.00
2019-06-20T13:17:45.067Z,21.40
2019-06-20T13:20:14.581Z,21.30
2019-06-20T13:22:44.656Z,21.30
2019-06-20T13:25:14.685Z,21.00
2019-06-20T13:27:43.393Z,21.40
2019-06-20T13:30:12.600Z,21.90
2019-06-20T13:32:42.040Z,21.70
2019-06-20T13:35:14.032Z,21.70
2019-06-20T13:37:43.453Z,21.30
2019-06-20T13:40:13.577Z,22.30
2019-06-20T13:42:43.679Z,21.90
2019-06-20T13:45:20.735Z,22.10
2019-06-20T13:47:50.008Z,21.30
2019-06-20T13:50:19.145Z,21.50
2019-06-20T13:52:49.605Z,21.70
2019-06-20T13:55:18.192Z,21.30
2019-06-20T13:57:47.194Z,21.60
2019-06-20T14:00:18.154Z,21.70
2019-06-20T14:02:47.363Z,21.70
2019-06-20T14:05:17.397Z,20.00
2019-06-20T14:07:48.452Z,21.40
2019-06-20T14:10:16.744Z,21.60
2019-06-20T14:12:46.725Z,20.90
2019-06-20T14:15:16.353Z,20.80
2019-06-20T14:17:45.039Z,20.20
2019-06-20T14:20:14.423Z,20.70
2019-06-20T14:22:42.982Z,21.90
2019-06-20T14:25:11.863Z,21.90
2019-06-20T14:27:40.304Z,20.40
2019-06-20T14:30:11.005Z,19.70
2019-06-20T14:32:39.448Z,20.40
2019-06-20T14:35:08.297Z,22.40
2019-06-20T14:37:36.911Z,22.70
2019-06-20T14:40:09.084Z,21.70
2019-06-20T14:42:37.882Z,21.80
2019-06-20T14:45:07.240Z,22.10
2019-06-20T14:47:36.033Z,21.50
2019-06-20T14:50:07.365Z,22.00
2019-06-20T14:52:35.824Z,21.00
2019-06-20T14:55:06.617Z,21.60
2019-06-20T14:57:35.220Z,22.70
2019-06-20T15:00:06.775Z,23.40
2019-06-20T15:02:38.913Z,22.40
2019-06-20T15:05:14.634Z,22.30
2019-06-20T15:07:45.045Z,22.50
2019-06-20T15:10:14.344Z,22.40
2019-06-20T15:12:42.926Z,22.10
2019-06-20T15:15:13.585Z,22.20
2019-06-20T15:17:42.097Z,21.20
2019-06-20T15:20:11.038Z,22.00
2019-06-20T15:22:39.570Z,21.70
2019-06-20T15:25:08.343Z,21.90
2019-06-20T15:27:36.863Z,21.90
2019-06-20T15:30:07.258Z,22.70
2019-06-20T15:32:35.728Z,22.40
2019-06-20T15:35:07.395Z,22.10
2019-06-20T15:37:35.992Z,22.80
2019-06-20T15:40:08.693Z,22.80
2019-06-20T15:42:37.536Z,22.00
2019-06-20T15:45:10.444Z,21.30
2019-06-20T15:47:39.153Z,21.60
2019-06-20T15:50:08.996Z,22.20
2019-06-20T15:52:37.449Z,22.50
2019-06-20T15:55:06.832Z,22.70
2019-06-20T15:57:35.570Z,22.70
2019-06-20T16:00:08.963Z,22.10
2019-06-20T16:02:37.565Z,22.30
2019-06-20T16:05:11.034Z,21.60
2019-06-20T16:07:39.661Z,21.90
2019-06-20T16:10:10.206Z,22.10
2019-06-20T16:12:38.791Z,22.10
2019-06-20T16:15:08.680Z,22.20
2019-06-20T16:17:37.205Z,22.00
2019-06-20T16:20:08.609Z,22.00
2019-06-20T16:22:37.331Z,21.40
2019-06-20T16:25:06.593Z,21.70
2019-06-20T16:27:35.114Z,21.90
2019-06-20T16:30:05.569Z,21.40
2019-06-20T16:32:34.019Z,21.20
2019-06-20T16:35:02.478Z,21.20
2019-06-20T16:37:31.067Z,21.10
2019-06-20T16:39:59.527Z,21.00
2019-06-20T16:42:28.146Z,20.90
2019-06-20T16:44:57.270Z,21.30
2019-06-20T16:47:25.733Z,21.30
2019-06-20T16:49:54.448Z,21.30
2019-06-20T16:52:22.908Z,21.60
2019-06-20T16:54:51.359Z,21.40
2019-06-20T16:57:20.065Z,21.60
2019-06-20T16:59:48.602Z,21.10
2019-06-20T17:02:17.066Z,21.20
2019-06-20T17:04:45.653Z,20.80
2019-06-20T17:07:14.138Z,20.80
2019-06-20T17:09:42.808Z,20.90
2019-06-20T17:12:11.452Z,21.30
2019-06-20T17:14:40.093Z,21.20
2019-06-20T17:17:08.554Z,20.90
2019-06-20T17:19:37.097Z,21.20
2019-06-20T17:22:06.121Z,21.20
2019-06-20T17:24:34.773Z,20.90
2019-06-20T17:27:03.281Z,21.10
2019-06-20T17:29:31.822Z,21.10
2019-06-20T17:32:00.259Z,21.40
2019-06-20T17:34:28.708Z,21.20
2019-06-20T17:36:57.163Z,21.20
2019-06-20T17:39:25.672Z,21.20
2019-06-20T17:41:55.571Z,20.90
2019-06-20T17:44:27.365Z,21.20
2019-06-20T17:46:54.437Z,20.90
2019-06-20T17:49:22.904Z,20.80
2019-06-20T17:51:51.351Z,20.60
2019-06-20T17:54:20.268Z,20.60
2019-06-20T17:56:48.929Z,20.50
2019-06-20T17:59:17.398Z,20.70
2019-06-20T18:01:45.832Z,20.80
2019-06-20T18:04:14.379Z,20.40
2019-06-20T18:06:43.017Z,20.20
2019-06-20T18:09:11.895Z,20.10
2019-06-20T18:11:40.342Z,19.70
2019-06-20T18:14:08.805Z,19.50
2019-06-20T18:16:37.341Z,19.40
2019-06-20T18:19:05.955Z,19.40
2019-06-20T18:21:34.480Z,19.30
2019-06-20T18:24:02.911Z,19.50
2019-06-20T18:26:31.392Z,19.40
2019-06-20T18:28:59.824Z,19.40
2019-06-20T18:31:28.304Z,19.30
2019-06-20T18:33:56.824Z,19.20
2019-06-20T18:36:25.298Z,19.30
2019-06-20T18:38:56.445Z,19.30
2019-06-20T18:41:25.003Z,19.50
2019-06-20T18:43:53.464Z,19.60
2019-06-20T18:46:21.997Z,19.50
2019-06-20T18:48:50.438Z,19.30
2019-06-20T18:51:19.052Z,19.20
2019-06-20T18:53:50.491Z,19.00
2019-06-20T18:56:17.730Z,18.80
2019-06-20T18:58:46.192Z,19.10
2019-06-20T19:01:14.654Z,18.80
2019-06-20T19:03:43.156Z,18.70
2019-06-20T19:06:11.684Z,18.70
2019-06-20T19:08:40.199Z,18.80
2019-06-20T19:11:08.710Z,18.90
2019-06-20T19:13:37.153Z,18.70
2019-06-20T19:16:05.693Z,18.80
2019-06-20T19:18:34.277Z,19.00
2019-06-20T19:21:02.750Z,19.10
2019-06-20T19:23:31.204Z,18.90
2019-06-20T19:25:59.681Z,18.70
2019-06-20T19:28:28.362Z,18.50
2019-06-20T19:30:57.205Z,18.50
2019-06-20T19:33:25.665Z,18.20
2019-06-20T19:35:54.145Z,18.00
2019-06-20T19:38:22.590Z,18.00
2019-06-20T19:40:51.580Z,17.80
2019-06-20T19:43:29.275Z,17.80
2019-06-20T19:46:09.428Z,17.90
2019-06-20T19:48:42.954Z,17.70
2019-06-20T19:51:15.567Z,17.60
2019-06-20T19:53:47.773Z,17.50
2019-06-20T19:56:19.270Z,17.50
2019-06-20T19:58:57.070Z,17.40
2019-06-20T20:01:29.086Z,17.30
2019-06-20T20:04:05.619Z,17.30
2019-06-20T20:06:35.263Z,17.00
2019-06-20T20:09:15.211Z,16.80
2019-06-20T20:11:46.717Z,16.90
2019-06-20T20:14:18.122Z,17.20
2019-06-20T20:16:48.949Z,17.20
2019-06-20T20:19:20.805Z,17.10
2019-06-20T20:21:51.642Z,17.10
2019-06-20T20:24:21.697Z,17.00
2019-06-20T20:26:53.314Z,16.90
2019-06-20T20:29:23.737Z,16.90
2019-06-20T20:31:56.073Z,17.00
2019-06-20T20:34:32.120Z,16.90
2019-06-20T20:37:05.977Z,16.70
2019-06-20T20:39:46.031Z,16.50
2019-06-20T20:42:17.873Z,16.80
2019-06-20T20:44:47.434Z,17.00
2019-06-20T20:47:21.039Z,17.30
2019-06-20T20:49:53.426Z,17.30
2019-06-20T20:52:25.269Z,17.40
2019-06-20T20:54:59.322Z,17.50
2019-06-20T20:57:27.891Z,17.50
2019-06-20T20:59:56.418Z,17.40
2019-06-20T21:02:24.929Z,17.20
2019-06-20T21:04:53.444Z,17.10
2019-06-20T21:07:21.956Z,17.00
2019-06-20T21:09:50.437Z,17.00
2019-06-20T21:12:19.054Z,16.80
2019-06-20T21:14:47.632Z,16.70
2019-06-20T21:17:16.328Z,16.50
2019-06-20T21:19:44.837Z,16.40
2019-06-20T21:22:13.367Z,16.30
2019-06-20T21:24:41.899Z,16.20
2019-06-20T21:27:10.516Z,16.10
2019-06-20T21:29:39.045Z,16.10
2019-06-20T21:32:07.489Z,16.10
2019-06-20T21:34:35.959Z,16.10
2019-06-20T21:37:04.570Z,16.10
2019-06-20T21:39:33.039Z,16.00
2019-06-20T21:42:01.497Z,15.90
2019-06-20T21:44:30.045Z,16.00
2019-06-20T21:46:58.642Z,16.10
2019-06-20T21:49:27.144Z,16.40
2019-06-20T21:51:55.613Z,16.50
2019-06-20T21:54:24.069Z,16.30
2019-06-20T21:56:52.657Z,16.30
2019-06-20T21:59:21.303Z,16.20
2019-06-20T22:01:49.938Z,16.20
2019-06-20T22:04:18.564Z,16.10
2019-06-20T22:06:47.038Z,16.00
2019-06-20T22:09:15.502Z,16.10
2019-06-20T22:11:44.135Z,16.10
2019-06-20T22:14:12.721Z,15.90
2019-06-20T22:16:41.261Z,15.80
2019-06-20T22:19:09.777Z,15.80
2019-06-20T22:21:38.382Z,15.70
2019-06-20T22:24:06.963Z,15.60
2019-06-20T22:26:35.501Z,15.50
2019-06-20T22:29:04.889Z,15.60
2019-06-20T22:31:33.490Z,15.70
2019-06-20T22:34:01.988Z,15.60
2019-06-20T22:36:39.546Z,15.40
2019-06-20T22:39:00.682Z,15.40
2019-06-20T22:41:29.229Z,15.30
2019-06-20T22:43:57.754Z,15.30
2019-06-20T22:46:26.212Z,15.30
2019-06-20T22:48:56.189Z,15.30
2019-06-20T22:51:24.645Z,15.50
2019-06-20T22:53:53.079Z,15.70
2019-06-20T22:56:21.544Z,15.60
2019-06-20T22:58:49.984Z,15.70
2019-06-20T23:01:18.438Z,15.80
2019-06-20T23:03:46.970Z,15.80
2019-06-20T23:06:15.488Z,15.70
2019-06-20T23:08:43.945Z,15.70
2019-06-20T23:11:12.388Z,15.60
2019-06-20T23:13:40.852Z,15.60
2019-06-20T23:16:09.293Z,15.50
2019-06-20T23:18:37.763Z,15.60
2019-06-20T23:21:06.265Z,15.50
2019-06-20T23:23:34.735Z,15.50
2019-06-20T23:26:06.009Z,15.50
2019-06-20T23:28:34.577Z,15.50
2019-06-20T23:31:03.029Z,15.40
2019-06-20T23:33:31.739Z,15.40
2019-06-20T23:36:00.257Z,15.20
2019-06-20T23:38:28.732Z,15.10
2019-06-20T23:40:57.538Z,14.90
2019-06-20T23:43:26.203Z,14.80
2019-06-20T23:45:54.780Z,14.80
2019-06-20T23:48:23.269Z,14.70
2019-06-20T23:50:51.794Z,14.60
2019-06-20T23:53:24.365Z,14.50
2019-06-20T23:55:52.957Z,14.40
2019-06-20T23:58:21.508Z,14.40
